sensor_id;sensor_type;location;lat;lon;timestamp;P1;durP1;ratioP1;P2;durP2;ratioP2
25932;SDS011;13731;51.166;4.474;2023-04-06T00:01:39;46.45;;;33.35;;
25932;SDS011;13731;51.166;4.474;2023-04-06T00:04:05;49.90;;;33.55;;
25932;SDS011;13731;51.166;4.474;2023-04-06T00:06:32;44.05;;;32.53;;
25932;SDS011;13731;51.166;4.474;2023-04-06T00:08:58;40.58;;;32.08;;
25932;SDS011;13731;51.166;4.474;2023-04-06T00:11:25;43.78;;;32.60;;
25932;SDS011;13731;51.166;4.474;2023-04-06T00:13:51;35.40;;;29.77;;
25932;SDS011;13731;51.166;4.474;2023-04-06T00:16:18;36.05;;;29.42;;
25932;SDS011;13731;51.166;4.474;2023-04-06T00:18:44;34.75;;;29.00;;
25932;SDS011;13731;51.166;4.474;2023-04-06T00:21:11;35.25;;;30.05;;
25932;SDS011;13731;51.166;4.474;2023-04-06T00:23:39;32.80;;;27.77;;
25932;SDS011;13731;51.166;4.474;2023-04-06T00:26:06;34.97;;;28.45;;
25932;SDS011;13731;51.166;4.474;2023-04-06T00:28:32;38.20;;;28.58;;
25932;SDS011;13731;51.166;4.474;2023-04-06T00:30:58;35.30;;;27.63;;
25932;SDS011;13731;51.166;4.474;2023-04-06T00:33:25;34.10;;;27.63;;
25932;SDS011;13731;51.166;4.474;2023-04-06T00:35:51;33.28;;;28.38;;
25932;SDS011;13731;51.166;4.474;2023-04-06T00:38:16;32.42;;;27.33;;
25932;SDS011;13731;51.166;4.474;2023-04-06T00:40:43;31.58;;;26.23;;
25932;SDS011;13731;51.166;4.474;2023-04-06T00:43:12;36.58;;;28.27;;
25932;SDS011;13731;51.166;4.474;2023-04-06T00:45:38;33.40;;;26.50;;
25932;SDS011;13731;51.166;4.474;2023-04-06T00:48:05;29.33;;;24.67;;
25932;SDS011;13731;51.166;4.474;2023-04-06T00:50:32;33.08;;;24.05;;
25932;SDS011;13731;51.166;4.474;2023-04-06T00:52:58;28.30;;;23.95;;
25932;SDS011;13731;51.166;4.474;2023-04-06T00:55:26;31.70;;;24.02;;
25932;SDS011;13731;51.166;4.474;2023-04-06T00:57:53;29.50;;;23.92;;
25932;SDS011;13731;51.166;4.474;2023-04-06T01:00:20;32.38;;;25.98;;
25932;SDS011;13731;51.166;4.474;2023-04-06T01:02:50;28.70;;;24.40;;
25932;SDS011;13731;51.166;4.474;2023-04-06T01:05:19;28.52;;;24.70;;
25932;SDS011;13731;51.166;4.474;2023-04-06T01:07:50;29.90;;;24.17;;
25932;SDS011;13731;51.166;4.474;2023-04-06T01:10:27;28.02;;;23.65;;
25932;SDS011;13731;51.166;4.474;2023-04-06T01:13:02;29.35;;;23.48;;
25932;SDS011;13731;51.166;4.474;2023-04-06T01:15:43;29.90;;;23.85;;
25932;SDS011;13731;51.166;4.474;2023-04-06T01:18:13;32.65;;;22.98;;
25932;SDS011;13731;51.166;4.474;2023-04-06T01:20:47;30.90;;;25.08;;
25932;SDS011;13731;51.166;4.474;2023-04-06T01:23:14;31.75;;;23.77;;
25932;SDS011;13731;51.166;4.474;2023-04-06T01:25:44;31.08;;;25.38;;
25932;SDS011;13731;51.166;4.474;2023-04-06T01:28:11;28.58;;;24.20;;
25932;SDS011;13731;51.166;4.474;2023-04-06T01:30:54;28.10;;;24.13;;
25932;SDS011;13731;51.166;4.474;2023-04-06T01:33:40;39.72;;;25.20;;
25932;SDS011;13731;51.166;4.474;2023-04-06T01:36:09;27.13;;;23.35;;
25932;SDS011;13731;51.166;4.474;2023-04-06T01:38:35;27.80;;;23.73;;
25932;SDS011;13731;51.166;4.474;2023-04-06T01:41:01;27.25;;;22.88;;
25932;SDS011;13731;51.166;4.474;2023-04-06T01:43:33;31.08;;;22.67;;
25932;SDS011;13731;51.166;4.474;2023-04-06T01:46:03;27.58;;;22.85;;
25932;SDS011;13731;51.166;4.474;2023-04-06T01:48:36;27.73;;;24.17;;
25932;SDS011;13731;51.166;4.474;2023-04-06T01:51:12;32.30;;;24.88;;
25932;SDS011;13731;51.166;4.474;2023-04-06T01:53:46;28.95;;;22.90;;
25932;SDS011;13731;51.166;4.474;2023-04-06T01:56:13;27.10;;;24.20;;
25932;SDS011;13731;51.166;4.474;2023-04-06T01:58:46;27.75;;;22.98;;
25932;SDS011;13731;51.166;4.474;2023-04-06T02:01:14;26.08;;;22.98;;
25932;SDS011;13731;51.166;4.474;2023-04-06T02:03:51;28.08;;;23.05;;
25932;SDS011;13731;51.166;4.474;2023-04-06T02:06:17;27.63;;;22.45;;
25932;SDS011;13731;51.166;4.474;2023-04-06T02:08:43;33.42;;;22.15;;
25932;SDS011;13731;51.166;4.474;2023-04-06T02:11:09;27.13;;;23.70;;
25932;SDS011;13731;51.166;4.474;2023-04-06T02:13:43;27.08;;;23.00;;
25932;SDS011;13731;51.166;4.474;2023-04-06T02:16:10;30.30;;;23.17;;
25932;SDS011;13731;51.166;4.474;2023-04-06T02:18:36;27.33;;;21.58;;
25932;SDS011;13731;51.166;4.474;2023-04-06T02:21:02;28.38;;;23.80;;
25932;SDS011;13731;51.166;4.474;2023-04-06T02:23:28;26.30;;;23.48;;
25932;SDS011;13731;51.166;4.474;2023-04-06T02:25:56;25.58;;;22.75;;
25932;SDS011;13731;51.166;4.474;2023-04-06T02:28:21;26.85;;;23.92;;
25932;SDS011;13731;51.166;4.474;2023-04-06T02:30:47;26.95;;;22.35;;
25932;SDS011;13731;51.166;4.474;2023-04-06T02:33:14;27.45;;;22.80;;
25932;SDS011;13731;51.166;4.474;2023-04-06T02:35:44;30.27;;;24.98;;
25932;SDS011;13731;51.166;4.474;2023-04-06T02:38:10;30.40;;;23.88;;
25932;SDS011;13731;51.166;4.474;2023-04-06T02:40:37;28.35;;;23.25;;
25932;SDS011;13731;51.166;4.474;2023-04-06T02:43:16;26.60;;;23.48;;
25932;SDS011;13731;51.166;4.474;2023-04-06T02:45:43;28.00;;;23.40;;
25932;SDS011;13731;51.166;4.474;2023-04-06T02:48:11;25.05;;;22.48;;
25932;SDS011;13731;51.166;4.474;2023-04-06T02:50:37;25.65;;;22.80;;
25932;SDS011;13731;51.166;4.474;2023-04-06T02:53:05;29.17;;;23.23;;
25932;SDS011;13731;51.166;4.474;2023-04-06T02:55:33;29.92;;;21.83;;
25932;SDS011;13731;51.166;4.474;2023-04-06T02:57:59;25.95;;;22.95;;
25932;SDS011;13731;51.166;4.474;2023-04-06T03:00:32;25.95;;;21.88;;
25932;SDS011;13731;51.166;4.474;2023-04-06T03:02:57;23.75;;;20.33;;
25932;SDS011;13731;51.166;4.474;2023-04-06T03:05:25;28.67;;;21.08;;
25932;SDS011;13731;51.166;4.474;2023-04-06T03:07:51;29.33;;;22.33;;
25932;SDS011;13731;51.166;4.474;2023-04-06T03:12:56;25.30;;;22.38;;
25932;SDS011;13731;51.166;4.474;2023-04-06T03:15:33;30.20;;;23.33;;
25932;SDS011;13731;51.166;4.474;2023-04-06T03:18:10;29.38;;;21.92;;
25932;SDS011;13731;51.166;4.474;2023-04-06T03:20:40;25.70;;;20.80;;
25932;SDS011;13731;51.166;4.474;2023-04-06T03:23:08;27.55;;;21.05;;
25932;SDS011;13731;51.166;4.474;2023-04-06T03:25:38;25.10;;;21.30;;
25932;SDS011;13731;51.166;4.474;2023-04-06T03:28:11;25.08;;;21.77;;
25932;SDS011;13731;51.166;4.474;2023-04-06T03:30:46;24.13;;;21.17;;
25932;SDS011;13731;51.166;4.474;2023-04-06T03:33:16;24.73;;;21.15;;
25932;SDS011;13731;51.166;4.474;2023-04-06T03:35:50;25.85;;;21.48;;
25932;SDS011;13731;51.166;4.474;2023-04-06T03:38:16;24.13;;;21.23;;
25932;SDS011;13731;51.166;4.474;2023-04-06T03:40:42;25.45;;;20.55;;
25932;SDS011;13731;51.166;4.474;2023-04-06T03:43:08;23.73;;;21.25;;
25932;SDS011;13731;51.166;4.474;2023-04-06T03:45:36;27.25;;;21.40;;
25932;SDS011;13731;51.166;4.474;2023-04-06T03:48:03;24.75;;;21.60;;
25932;SDS011;13731;51.166;4.474;2023-04-06T03:50:32;24.10;;;21.58;;
25932;SDS011;13731;51.166;4.474;2023-04-06T03:52:58;24.50;;;21.83;;
25932;SDS011;13731;51.166;4.474;2023-04-06T03:55:24;29.88;;;22.52;;
25932;SDS011;13731;51.166;4.474;2023-04-06T03:57:50;24.30;;;21.33;;
25932;SDS011;13731;51.166;4.474;2023-04-06T04:00:17;25.95;;;22.30;;
25932;SDS011;13731;51.166;4.474;2023-04-06T04:02:42;28.48;;;21.35;;
25932;SDS011;13731;51.166;4.474;2023-04-06T04:05:08;26.58;;;23.25;;
25932;SDS011;13731;51.166;4.474;2023-04-06T04:07:36;29.38;;;21.13;;
25932;SDS011;13731;51.166;4.474;2023-04-06T04:10:02;23.90;;;21.40;;
25932;SDS011;13731;51.166;4.474;2023-04-06T04:12:30;23.85;;;21.30;;
25932;SDS011;13731;51.166;4.474;2023-04-06T04:14:57;30.17;;;24.67;;
25932;SDS011;13731;51.166;4.474;2023-04-06T04:17:23;32.53;;;21.98;;
25932;SDS011;13731;51.166;4.474;2023-04-06T04:19:50;26.00;;;23.15;;
25932;SDS011;13731;51.166;4.474;2023-04-06T04:22:16;24.38;;;21.65;;
25932;SDS011;13731;51.166;4.474;2023-04-06T04:24:42;24.92;;;21.65;;
25932;SDS011;13731;51.166;4.474;2023-04-06T04:27:09;25.38;;;22.13;;
25932;SDS011;13731;51.166;4.474;2023-04-06T04:29:35;28.10;;;22.67;;
25932;SDS011;13731;51.166;4.474;2023-04-06T04:32:05;25.00;;;21.58;;
25932;SDS011;13731;51.166;4.474;2023-04-06T04:34:32;26.20;;;22.27;;
25932;SDS011;13731;51.166;4.474;2023-04-06T04:36:58;30.38;;;23.40;;
25932;SDS011;13731;51.166;4.474;2023-04-06T04:39:47;26.65;;;23.73;;
25932;SDS011;13731;51.166;4.474;2023-04-06T04:42:13;30.73;;;22.25;;
25932;SDS011;13731;51.166;4.474;2023-04-06T04:44:45;25.70;;;22.20;;
25932;SDS011;13731;51.166;4.474;2023-04-06T04:47:12;32.25;;;23.35;;
25932;SDS011;13731;51.166;4.474;2023-04-06T04:49:43;31.05;;;25.63;;
25932;SDS011;13731;51.166;4.474;2023-04-06T04:52:10;30.27;;;24.38;;
25932;SDS011;13731;51.166;4.474;2023-04-06T04:54:54;26.20;;;23.38;;
25932;SDS011;13731;51.166;4.474;2023-04-06T04:57:25;28.33;;;23.63;;
25932;SDS011;13731;51.166;4.474;2023-04-06T04:59:51;31.85;;;23.63;;
25932;SDS011;13731;51.166;4.474;2023-04-06T05:02:18;26.05;;;22.98;;
25932;SDS011;13731;51.166;4.474;2023-04-06T05:05:08;28.33;;;25.13;;
25932;SDS011;13731;51.166;4.474;2023-04-06T05:07:35;31.42;;;28.15;;
25932;SDS011;13731;51.166;4.474;2023-04-06T05:10:01;27.52;;;23.58;;
25932;SDS011;13731;51.166;4.474;2023-04-06T05:12:33;28.08;;;22.10;;
25932;SDS011;13731;51.166;4.474;2023-04-06T05:15:05;26.23;;;21.85;;
25932;SDS011;13731;51.166;4.474;2023-04-06T05:17:31;26.98;;;23.27;;
25932;SDS011;13731;51.166;4.474;2023-04-06T05:19:58;25.02;;;22.42;;
25932;SDS011;13731;51.166;4.474;2023-04-06T05:22:26;25.10;;;21.60;;
25932;SDS011;13731;51.166;4.474;2023-04-06T05:25:02;29.15;;;22.73;;
25932;SDS011;13731;51.166;4.474;2023-04-06T05:27:29;27.60;;;23.75;;
25932;SDS011;13731;51.166;4.474;2023-04-06T05:29:56;26.92;;;21.60;;
25932;SDS011;13731;51.166;4.474;2023-04-06T05:32:24;32.85;;;29.50;;
25932;SDS011;13731;51.166;4.474;2023-04-06T05:34:51;26.55;;;21.83;;
25932;SDS011;13731;51.166;4.474;2023-04-06T05:37:17;29.67;;;26.33;;
25932;SDS011;13731;51.166;4.474;2023-04-06T05:39:43;29.63;;;23.15;;
25932;SDS011;13731;51.166;4.474;2023-04-06T05:42:09;27.25;;;22.88;;
25932;SDS011;13731;51.166;4.474;2023-04-06T05:44:56;30.33;;;23.58;;
25932;SDS011;13731;51.166;4.474;2023-04-06T05:47:22;26.60;;;22.70;;
25932;SDS011;13731;51.166;4.474;2023-04-06T05:49:56;26.45;;;23.52;;
25932;SDS011;13731;51.166;4.474;2023-04-06T05:52:31;30.38;;;23.50;;
25932;SDS011;13731;51.166;4.474;2023-04-06T05:54:58;28.55;;;24.38;;
25932;SDS011;13731;51.166;4.474;2023-04-06T05:57:25;35.60;;;28.38;;
25932;SDS011;13731;51.166;4.474;2023-04-06T05:59:51;25.08;;;22.33;;
25932;SDS011;13731;51.166;4.474;2023-04-06T06:02:18;33.67;;;24.13;;
25932;SDS011;13731;51.166;4.474;2023-04-06T06:07:14;31.02;;;24.23;;
25932;SDS011;13731;51.166;4.474;2023-04-06T06:09:47;27.83;;;22.73;;
25932;SDS011;13731;51.166;4.474;2023-04-06T06:12:21;31.23;;;23.98;;
25932;SDS011;13731;51.166;4.474;2023-04-06T06:14:48;29.95;;;24.80;;
25932;SDS011;13731;51.166;4.474;2023-04-06T06:17:15;27.73;;;23.55;;
25932;SDS011;13731;51.166;4.474;2023-04-06T06:19:44;35.47;;;25.15;;
25932;SDS011;13731;51.166;4.474;2023-04-06T06:22:10;32.20;;;25.00;;
25932;SDS011;13731;51.166;4.474;2023-04-06T06:24:40;32.92;;;24.10;;
25932;SDS011;13731;51.166;4.474;2023-04-06T06:27:06;34.40;;;27.17;;
25932;SDS011;13731;51.166;4.474;2023-04-06T06:29:34;35.97;;;29.73;;
25932;SDS011;13731;51.166;4.474;2023-04-06T06:32:00;32.03;;;27.25;;
25932;SDS011;13731;51.166;4.474;2023-04-06T06:34:26;36.78;;;28.65;;
25932;SDS011;13731;51.166;4.474;2023-04-06T06:36:54;47.95;;;29.77;;
25932;SDS011;13731;51.166;4.474;2023-04-06T06:39:21;36.75;;;33.15;;
25932;SDS011;13731;51.166;4.474;2023-04-06T06:41:49;39.30;;;34.42;;
25932;SDS011;13731;51.166;4.474;2023-04-06T06:44:15;45.28;;;34.55;;
25932;SDS011;13731;51.166;4.474;2023-04-06T06:46:42;39.97;;;34.88;;
25932;SDS011;13731;51.166;4.474;2023-04-06T06:49:08;45.97;;;38.05;;
25932;SDS011;13731;51.166;4.474;2023-04-06T06:51:36;42.25;;;37.42;;
25932;SDS011;13731;51.166;4.474;2023-04-06T06:54:02;44.40;;;39.63;;
25932;SDS011;13731;51.166;4.474;2023-04-06T06:56:28;42.65;;;38.28;;
25932;SDS011;13731;51.166;4.474;2023-04-06T06:58:54;41.03;;;37.15;;
25932;SDS011;13731;51.166;4.474;2023-04-06T07:01:20;43.38;;;38.95;;
25932;SDS011;13731;51.166;4.474;2023-04-06T07:03:46;43.83;;;39.25;;
25932;SDS011;13731;51.166;4.474;2023-04-06T07:06:12;48.45;;;43.47;;
25932;SDS011;13731;51.166;4.474;2023-04-06T07:08:39;46.95;;;42.20;;
25932;SDS011;13731;51.166;4.474;2023-04-06T07:11:05;53.22;;;48.03;;
25932;SDS011;13731;51.166;4.474;2023-04-06T07:13:31;53.90;;;48.55;;
25932;SDS011;13731;51.166;4.474;2023-04-06T07:15:59;55.03;;;49.78;;
25932;SDS011;13731;51.166;4.474;2023-04-06T07:18:25;54.65;;;49.25;;
25932;SDS011;13731;51.166;4.474;2023-04-06T07:20:51;55.67;;;49.83;;
25932;SDS011;13731;51.166;4.474;2023-04-06T07:23:17;58.08;;;52.92;;
25932;SDS011;13731;51.166;4.474;2023-04-06T07:25:44;64.10;;;58.50;;
25932;SDS011;13731;51.166;4.474;2023-04-06T07:28:10;66.20;;;59.85;;
25932;SDS011;13731;51.166;4.474;2023-04-06T07:30:37;62.03;;;56.45;;
25932;SDS011;13731;51.166;4.474;2023-04-06T07:33:04;59.58;;;54.28;;
25932;SDS011;13731;51.166;4.474;2023-04-06T07:35:31;56.70;;;51.53;;
25932;SDS011;13731;51.166;4.474;2023-04-06T07:37:58;61.42;;;55.97;;
25932;SDS011;13731;51.166;4.474;2023-04-06T07:40:24;64.85;;;59.72;;
25932;SDS011;13731;51.166;4.474;2023-04-06T07:42:52;67.55;;;61.53;;
25932;SDS011;13731;51.166;4.474;2023-04-06T07:45:18;66.93;;;61.67;;
25932;SDS011;13731;51.166;4.474;2023-04-06T07:47:45;71.75;;;66.00;;
25932;SDS011;13731;51.166;4.474;2023-04-06T07:50:11;70.00;;;64.13;;
25932;SDS011;13731;51.166;4.474;2023-04-06T07:52:38;72.13;;;66.65;;
25932;SDS011;13731;51.166;4.474;2023-04-06T07:55:05;73.63;;;67.47;;
25932;SDS011;13731;51.166;4.474;2023-04-06T07:57:31;71.78;;;66.45;;
25932;SDS011;13731;51.166;4.474;2023-04-06T07:59:57;69.40;;;63.92;;
25932;SDS011;13731;51.166;4.474;2023-04-06T08:02:23;75.68;;;69.95;;
25932;SDS011;13731;51.166;4.474;2023-04-06T08:04:49;65.80;;;60.53;;
25932;SDS011;13731;51.166;4.474;2023-04-06T08:07:15;76.15;;;70.35;;
25932;SDS011;13731;51.166;4.474;2023-04-06T08:09:40;93.10;;;86.65;;
25932;SDS011;13731;51.166;4.474;2023-04-06T08:12:06;87.43;;;81.65;;
25932;SDS011;13731;51.166;4.474;2023-04-06T08:14:32;92.72;;;86.38;;
25932;SDS011;13731;51.166;4.474;2023-04-06T08:16:59;100.88;;;94.10;;
25932;SDS011;13731;51.166;4.474;2023-04-06T08:19:25;132.70;;;124.50;;
25932;SDS011;13731;51.166;4.474;2023-04-06T08:21:51;114.45;;;107.30;;
25932;SDS011;13731;51.166;4.474;2023-04-06T08:24:17;99.80;;;93.45;;
25932;SDS011;13731;51.166;4.474;2023-04-06T08:26:42;200.68;;;189.07;;
25932;SDS011;13731;51.166;4.474;2023-04-06T08:29:08;252.73;;;236.75;;
25932;SDS011;13731;51.166;4.474;2023-04-06T08:31:34;101.30;;;94.88;;
25932;SDS011;13731;51.166;4.474;2023-04-06T08:34:01;114.78;;;107.40;;
25932;SDS011;13731;51.166;4.474;2023-04-06T08:36:28;111.20;;;104.65;;
25932;SDS011;13731;51.166;4.474;2023-04-06T08:38:54;118.82;;;111.45;;
25932;SDS011;13731;51.166;4.474;2023-04-06T08:41:20;95.75;;;89.68;;
25932;SDS011;13731;51.166;4.474;2023-04-06T08:46:13;206.10;;;192.63;;
25932;SDS011;13731;51.166;4.474;2023-04-06T08:48:40;218.68;;;204.85;;
25932;SDS011;13731;51.166;4.474;2023-04-06T08:51:11;77.97;;;72.70;;
25932;SDS011;13731;51.166;4.474;2023-04-06T08:53:37;77.63;;;72.55;;
25932;SDS011;13731;51.166;4.474;2023-04-06T08:56:04;77.63;;;72.55;;
25932;SDS011;13731;51.166;4.474;2023-04-06T08:58:39;78.50;;;73.68;;
25932;SDS011;13731;51.166;4.474;2023-04-06T09:01:06;238.15;;;220.27;;
25932;SDS011;13731;51.166;4.474;2023-04-06T09:03:38;139.32;;;131.13;;
25932;SDS011;13731;51.166;4.474;2023-04-06T09:06:06;69.65;;;65.85;;
25932;SDS011;13731;51.166;4.474;2023-04-06T09:08:33;63.88;;;60.17;;
25932;SDS011;13731;51.166;4.474;2023-04-06T09:11:01;88.82;;;83.90;;
25932;SDS011;13731;51.166;4.474;2023-04-06T09:13:28;61.95;;;57.80;;
25932;SDS011;13731;51.166;4.474;2023-04-06T09:16:03;56.65;;;53.15;;
25932;SDS011;13731;51.166;4.474;2023-04-06T09:18:31;55.78;;;52.40;;
25932;SDS011;13731;51.166;4.474;2023-04-06T09:21:00;65.43;;;61.35;;
25932;SDS011;13731;51.166;4.474;2023-04-06T09:23:27;113.70;;;107.40;;
25932;SDS011;13731;51.166;4.474;2023-04-06T09:26:04;79.82;;;75.25;;
25932;SDS011;13731;51.166;4.474;2023-04-06T09:28:40;74.85;;;70.68;;
25932;SDS011;13731;51.166;4.474;2023-04-06T09:31:07;100.72;;;95.25;;
25932;SDS011;13731;51.166;4.474;2023-04-06T09:33:37;82.10;;;77.28;;
25932;SDS011;13731;51.166;4.474;2023-04-06T09:36:04;78.85;;;74.45;;
25932;SDS011;13731;51.166;4.474;2023-04-06T09:38:31;86.18;;;81.05;;
25932;SDS011;13731;51.166;4.474;2023-04-06T09:40:57;80.80;;;75.72;;
25932;SDS011;13731;51.166;4.474;2023-04-06T09:43:24;68.53;;;64.05;;
25932;SDS011;13731;51.166;4.474;2023-04-06T09:45:53;71.82;;;67.43;;
25932;SDS011;13731;51.166;4.474;2023-04-06T09:48:20;60.75;;;56.92;;
25932;SDS011;13731;51.166;4.474;2023-04-06T09:50:49;61.00;;;57.20;;
25932;SDS011;13731;51.166;4.474;2023-04-06T09:53:19;75.13;;;70.45;;
25932;SDS011;13731;51.166;4.474;2023-04-06T09:55:45;68.82;;;64.72;;
25932;SDS011;13731;51.166;4.474;2023-04-06T09:58:15;86.40;;;81.43;;
25932;SDS011;13731;51.166;4.474;2023-04-06T10:03:30;68.05;;;63.70;;
25932;SDS011;13731;51.166;4.474;2023-04-06T10:06:04;67.03;;;62.58;;
25932;SDS011;13731;51.166;4.474;2023-04-06T10:08:35;59.75;;;55.72;;
25932;SDS011;13731;51.166;4.474;2023-04-06T10:11:05;70.47;;;66.13;;
25932;SDS011;13731;51.166;4.474;2023-04-06T10:13:31;79.60;;;74.38;;
25932;SDS011;13731;51.166;4.474;2023-04-06T10:15:58;95.00;;;88.85;;
25932;SDS011;13731;51.166;4.474;2023-04-06T10:18:26;77.57;;;72.60;;
25932;SDS011;13731;51.166;4.474;2023-04-06T10:20:57;78.00;;;73.00;;
25932;SDS011;13731;51.166;4.474;2023-04-06T10:23:41;112.38;;;105.30;;
25932;SDS011;13731;51.166;4.474;2023-04-06T10:26:13;162.38;;;151.70;;
25932;SDS011;13731;51.166;4.474;2023-04-06T10:28:41;96.97;;;90.85;;
25932;SDS011;13731;51.166;4.474;2023-04-06T10:31:08;79.25;;;73.90;;
25932;SDS011;13731;51.166;4.474;2023-04-06T10:33:34;105.82;;;99.63;;
25932;SDS011;13731;51.166;4.474;2023-04-06T10:36:13;98.53;;;92.40;;
25932;SDS011;13731;51.166;4.474;2023-04-06T10:38:40;87.28;;;81.90;;
25932;SDS011;13731;51.166;4.474;2023-04-06T10:41:11;86.80;;;81.20;;
25932;SDS011;13731;51.166;4.474;2023-04-06T10:43:37;92.28;;;86.80;;
25932;SDS011;13731;51.166;4.474;2023-04-06T10:46:05;197.80;;;184.30;;
25932;SDS011;13731;51.166;4.474;2023-04-06T10:51:11;105.47;;;99.15;;
25932;SDS011;13731;51.166;4.474;2023-04-06T10:53:39;149.88;;;141.18;;
25932;SDS011;13731;51.166;4.474;2023-04-06T10:56:09;79.47;;;74.35;;
25932;SDS011;13731;51.166;4.474;2023-04-06T10:58:37;106.90;;;100.68;;
25932;SDS011;13731;51.166;4.474;2023-04-06T11:01:03;111.35;;;105.10;;
25932;SDS011;13731;51.166;4.474;2023-04-06T11:03:29;113.10;;;106.32;;
25932;SDS011;13731;51.166;4.474;2023-04-06T11:05:55;107.22;;;100.93;;
25932;SDS011;13731;51.166;4.474;2023-04-06T11:08:33;83.97;;;78.78;;
25932;SDS011;13731;51.166;4.474;2023-04-06T11:11:05;100.22;;;94.05;;
25932;SDS011;13731;51.166;4.474;2023-04-06T11:13:37;96.78;;;90.72;;
25932;SDS011;13731;51.166;4.474;2023-04-06T11:16:04;101.07;;;95.05;;
25932;SDS011;13731;51.166;4.474;2023-04-06T11:18:31;133.82;;;126.03;;
25932;SDS011;13731;51.166;4.474;2023-04-06T11:20:57;109.85;;;103.13;;
25932;SDS011;13731;51.166;4.474;2023-04-06T11:23:23;98.85;;;92.35;;
25932;SDS011;13731;51.166;4.474;2023-04-06T11:25:52;143.25;;;134.57;;
25932;SDS011;13731;51.166;4.474;2023-04-06T11:28:19;125.30;;;117.68;;
25932;SDS011;13731;51.166;4.474;2023-04-06T11:30:45;95.07;;;89.07;;
25932;SDS011;13731;51.166;4.474;2023-04-06T11:33:19;88.10;;;82.72;;
25932;SDS011;13731;51.166;4.474;2023-04-06T11:35:47;95.18;;;89.03;;
25932;SDS011;13731;51.166;4.474;2023-04-06T11:38:13;83.30;;;77.80;;
25932;SDS011;13731;51.166;4.474;2023-04-06T11:40:39;176.20;;;165.55;;
25932;SDS011;13731;51.166;4.474;2023-04-06T11:43:06;120.53;;;112.93;;
25932;SDS011;13731;51.166;4.474;2023-04-06T11:45:39;80.10;;;74.70;;
25932;SDS011;13731;51.166;4.474;2023-04-06T11:48:17;86.43;;;80.68;;
25932;SDS011;13731;51.166;4.474;2023-04-06T11:50:46;78.03;;;72.90;;
25932;SDS011;13731;51.166;4.474;2023-04-06T11:53:12;76.32;;;71.30;;
25932;SDS011;13731;51.166;4.474;2023-04-06T11:55:38;88.50;;;82.82;;
25932;SDS011;13731;51.166;4.474;2023-04-06T11:58:05;89.90;;;84.25;;
25932;SDS011;13731;51.166;4.474;2023-04-06T12:00:32;76.93;;;71.68;;
25932;SDS011;13731;51.166;4.474;2023-04-06T12:03:00;108.95;;;102.05;;
25932;SDS011;13731;51.166;4.474;2023-04-06T12:05:26;121.32;;;113.72;;
25932;SDS011;13731;51.166;4.474;2023-04-06T12:07:52;107.45;;;100.90;;
25932;SDS011;13731;51.166;4.474;2023-04-06T12:10:18;148.80;;;139.80;;
25932;SDS011;13731;51.166;4.474;2023-04-06T12:12:44;135.98;;;127.63;;
25932;SDS011;13731;51.166;4.474;2023-04-06T12:15:10;75.30;;;70.32;;
25932;SDS011;13731;51.166;4.474;2023-04-06T12:17:35;139.55;;;131.32;;
25932;SDS011;13731;51.166;4.474;2023-04-06T12:20:02;95.45;;;89.45;;
25932;SDS011;13731;51.166;4.474;2023-04-06T12:22:28;79.15;;;73.82;;
25932;SDS011;13731;51.166;4.474;2023-04-06T12:24:54;84.22;;;78.72;;
25932;SDS011;13731;51.166;4.474;2023-04-06T12:27:20;87.63;;;81.70;;
25932;SDS011;13731;51.166;4.474;2023-04-06T12:29:46;83.90;;;78.65;;
25932;SDS011;13731;51.166;4.474;2023-04-06T12:32:12;92.55;;;86.60;;
25932;SDS011;13731;51.166;4.474;2023-04-06T12:34:38;92.95;;;86.80;;
25932;SDS011;13731;51.166;4.474;2023-04-06T12:37:04;99.20;;;92.95;;
25932;SDS011;13731;51.166;4.474;2023-04-06T12:39:30;172.60;;;160.85;;
25932;SDS011;13731;51.166;4.474;2023-04-06T12:41:56;146.85;;;137.30;;
25932;SDS011;13731;51.166;4.474;2023-04-06T12:44:22;289.65;;;269.75;;
25932;SDS011;13731;51.166;4.474;2023-04-06T12:46:48;79.10;;;74.00;;
25932;SDS011;13731;51.166;4.474;2023-04-06T12:49:15;91.25;;;85.47;;
25932;SDS011;13731;51.166;4.474;2023-04-06T12:51:42;293.00;;;270.05;;
25932;SDS011;13731;51.166;4.474;2023-04-06T12:54:08;189.93;;;177.18;;
25932;SDS011;13731;51.166;4.474;2023-04-06T12:56:34;93.13;;;87.70;;
25932;SDS011;13731;51.166;4.474;2023-04-06T12:59:00;106.88;;;100.07;;
25932;SDS011;13731;51.166;4.474;2023-04-06T13:01:26;111.25;;;104.80;;
25932;SDS011;13731;51.166;4.474;2023-04-06T13:03:53;147.82;;;139.13;;
25932;SDS011;13731;51.166;4.474;2023-04-06T13:06:19;155.20;;;145.98;;
25932;SDS011;13731;51.166;4.474;2023-04-06T13:08:45;308.90;;;285.30;;
25932;SDS011;13731;51.166;4.474;2023-04-06T13:11:12;115.68;;;108.95;;
25932;SDS011;13731;51.166;4.474;2023-04-06T13:13:38;178.35;;;167.68;;
25932;SDS011;13731;51.166;4.474;2023-04-06T13:16:05;94.35;;;88.65;;
25932;SDS011;13731;51.166;4.474;2023-04-06T13:18:34;101.95;;;95.80;;
25932;SDS011;13731;51.166;4.474;2023-04-06T13:21:03;128.55;;;121.15;;
25932;SDS011;13731;51.166;4.474;2023-04-06T13:23:33;410.88;;;376.80;;
25932;SDS011;13731;51.166;4.474;2023-04-06T13:26:03;96.47;;;90.57;;
25932;SDS011;13731;51.166;4.474;2023-04-06T13:28:31;136.95;;;128.68;;
25932;SDS011;13731;51.166;4.474;2023-04-06T13:30:58;116.82;;;109.93;;
25932;SDS011;13731;51.166;4.474;2023-04-06T13:33:25;161.98;;;152.55;;
25932;SDS011;13731;51.166;4.474;2023-04-06T13:35:51;130.80;;;123.38;;
25932;SDS011;13731;51.166;4.474;2023-04-06T13:38:18;118.80;;;112.15;;
25932;SDS011;13731;51.166;4.474;2023-04-06T13:40:44;115.07;;;108.07;;
25932;SDS011;13731;51.166;4.474;2023-04-06T13:43:10;107.18;;;101.00;;
25932;SDS011;13731;51.166;4.474;2023-04-06T13:45:37;292.77;;;273.83;;
25932;SDS011;13731;51.166;4.474;2023-04-06T13:48:03;114.45;;;107.97;;
25932;SDS011;13731;51.166;4.474;2023-04-06T13:50:30;117.50;;;110.93;;
25932;SDS011;13731;51.166;4.474;2023-04-06T13:52:55;114.40;;;108.00;;
25932;SDS011;13731;51.166;4.474;2023-04-06T13:55:21;137.60;;;129.82;;
25932;SDS011;13731;51.166;4.474;2023-04-06T13:57:49;149.70;;;141.18;;
25932;SDS011;13731;51.166;4.474;2023-04-06T14:00:16;162.32;;;152.93;;
25932;SDS011;13731;51.166;4.474;2023-04-06T14:02:43;189.35;;;177.75;;
25932;SDS011;13731;51.166;4.474;2023-04-06T14:05:09;110.40;;;103.75;;
25932;SDS011;13731;51.166;4.474;2023-04-06T14:07:35;126.05;;;118.75;;
25932;SDS011;13731;51.166;4.474;2023-04-06T14:10:01;122.65;;;115.55;;
25932;SDS011;13731;51.166;4.474;2023-04-06T14:12:28;133.02;;;124.93;;
25932;SDS011;13731;51.166;4.474;2023-04-06T14:14:54;210.85;;;197.82;;
25932;SDS011;13731;51.166;4.474;2023-04-06T14:17:19;232.63;;;216.45;;
25932;SDS011;13731;51.166;4.474;2023-04-06T14:19:45;117.13;;;109.78;;
25932;SDS011;13731;51.166;4.474;2023-04-06T14:22:12;129.70;;;122.20;;
25932;SDS011;13731;51.166;4.474;2023-04-06T14:24:38;109.47;;;103.03;;
25932;SDS011;13731;51.166;4.474;2023-04-06T14:27:05;104.40;;;97.80;;
25932;SDS011;13731;51.166;4.474;2023-04-06T14:29:31;99.32;;;93.13;;
25932;SDS011;13731;51.166;4.474;2023-04-06T14:31:56;108.20;;;101.60;;
25932;SDS011;13731;51.166;4.474;2023-04-06T14:34:27;105.35;;;98.72;;